Latest Weather Observations for West Wyalong

IDN60801

Issued at 3:32 pm EST Tuesday 28 July 2015 (issued every 30 minutes, with the page automatically refreshed every 10 minutes)

About weather observations | Map of weather stations | Latest weather observations for NSW | Other Formats
Station Details ID: 050017 Name: WEST WYALONG AIRPORT AWS Lat: -33.94 Lon: 147.20 Height: 257.0 m
Data from the previous 72 hours. | See also: Recent months for locations in New South Wales
Date/Time
EST
Temp
°C
App
Temp
°C
Dew
Point
Rel
Hum
%
Delta-T
°C
Wind Press
QNH
hPa
Press
MSL
hPa
Rain
since 9 am
mm
Dir
 
Spd
km/h
Gust
km/h
Spd
kts
Gust
kts
28/03:30pm 12.0 7.9 4.5 60 3.4 SSW 15 26 8 14 1033.4 1033.8 0.0
28/03:00pm 11.9 7.8 4.4 60 3.4 S 15 20 8 11 1033.4 1033.8 0.0
28/02:30pm 12.5 8.0 4.2 57 3.8 SSW 17 24 9 13 1033.4 1033.8 0.0
28/02:00pm 12.3 7.4 4.3 58 3.6 SSW 19 24 10 13 1033.7 1034.1 0.0
28/01:30pm 11.9 7.4 4.4 60 3.4 SSW 17 26 9 14 1034.0 1034.5 0.0
28/01:00pm 12.2 7.4 5.6 64 3.1 SSW 20 28 11 15 1034.4 1034.9 0.0
28/12:30pm 11.5 6.5 4.5 62 3.2 SSW 20 28 11 15 1034.9 1035.4 0.0
28/12:00pm 11.4 6.7 5.1 65 2.9 SSW 19 26 10 14 1035.4 1035.9 0.0
28/11:30am 10.6 6.5 4.5 66 2.8 SSW 15 20 8 11 1035.8 1036.3 0.0
28/11:00am 10.5 7.0 5.3 70 2.4 S 13 20 7 11 1036.1 1036.6 0.0
28/10:30am 9.6 5.6 5.0 73 2.1 S 15 20 8 11 1036.2 1036.7 0.0
28/10:00am 8.9 5.3 4.9 76 1.8 SSW 13 17 7 9 1036.1 1036.6 0.0
28/09:30am 7.7 4.4 4.7 81 1.3 SW 11 15 6 8 1036.0 1036.5 0.0
28/09:00am 6.4 3.0 4.2 86 0.9 SW 11 15 6 8 1035.8 1036.3 0.0
28/08:30am 5.7 2.7 4.2 90 0.6 WSW 9 13 5 7 1035.6 1036.1 0.0
28/08:00am 4.9 2.0 4.6 98 0.1 WSW 9 13 5 7 1035.4 1035.9 0.0
28/07:30am 3.7 0.6 3.6 99 0.0 WSW 9 11 5 6 1035.2 1035.7 0.0
28/07:00am 3.7 -0.2 3.4 98 0.1 WSW 13 15 7 8 1034.8 1035.3 0.0
28/06:30am 3.5 -0.1 2.8 95 0.3 WSW 11 13 6 7 1034.5 1035.0 0.0
28/06:00am 4.2 -0.1 3.2 93 0.4 WSW 15 19 8 10 1034.2 1034.7 0.0
28/05:30am 4.5 0.2 3.0 90 0.6 WSW 15 19 8 10 1033.9 1034.4 0.0
28/05:00am 5.0 1.1 3.2 88 0.7 WSW 13 17 7 9 1033.6 1034.0 0.0
28/04:30am 5.0 0.7 3.3 89 0.7 WSW 15 17 8 9 1033.2 1033.7 0.0
28/04:00am 3.9 0.2 2.4 90 0.6 W 11 13 6 7 1033.4 1033.8 0.0
28/03:30am 5.1 1.2 3.6 90 0.6 WSW 13 15 7 8 1033.2 1033.7 0.0
28/03:00am 4.2 0.3 3.2 93 0.4 W 13 15 7 8 1033.2 1033.7 0.0
28/02:30am 3.6 -0.1 2.6 93 0.4 W 11 13 6 7 1033.2 1033.7 0.0
28/02:00am 4.1 0.1 2.8 91 0.5 W 13 15 7 8 1033.0 1033.5 0.0
28/01:30am 3.7 0.1 3.0 95 0.3 WSW 11 15 6 8 1032.8 1033.3 0.0
28/01:00am 3.7 0.4 2.2 90 0.6 WSW 9 11 5 6 1032.9 1033.4 0.0
28/12:30am 4.1 0.7 2.1 87 0.8 WSW 9 11 5 6 1032.6 1033.1 0.0
28/12:00am 5.1 1.0 2.3 82 1.1 W 13 15 7 8 1032.7 1033.2 0.0
 
Date/Time
EST
Temp
°C
App
Temp
°C
Dew
Point
Rel
Hum
%
Delta-T
°C
Wind Press
QNH
hPa
Press
MSL
hPa
Rain
since 9 am
mm
Dir
 
Spd
km/h
Gust
km/h
Spd
kts
Gust
kts
27/11:30pm 5.5 1.4 2.2 79 1.4 WSW 13 13 7 7 1032.9 1033.4 0.0
27/11:00pm 6.7 2.6 2.0 72 1.9 SW 13 17 7 9 1033.1 1033.6 0.0
27/10:30pm 7.8 3.9 3.5 74 1.9 SW 13 20 7 11 1033.1 1033.6 0.0
27/10:00pm 7.8 3.5 3.5 74 1.8 WSW 15 20 8 11 1032.8 1033.3 0.0
27/09:30pm 7.6 3.7 3.6 76 1.7 SW 13 17 7 9 1032.7 1033.2 0.0
27/09:00pm 7.4 3.4 3.1 74 1.8 WSW 13 17 7 9 1032.6 1033.1 0.0
27/08:30pm 7.9 3.2 3.2 72 2.0 WSW 17 20 9 11 1032.6 1033.1 0.0
27/08:00pm 8.0 4.2 3.7 74 1.9 WSW 13 20 7 11 1032.5 1033.0 0.0
27/07:30pm 8.0 3.8 3.7 74 1.9 SW 15 17 8 9 1032.4 1032.9 0.0
27/07:00pm 8.0 4.1 3.3 72 2.0 WSW 13 19 7 10 1032.0 1032.5 0.0
27/06:30pm 8.3 4.4 3.2 70 2.2 WSW 13 17 7 9 1031.6 1032.1 0.0
27/06:00pm 8.5 4.2 3.1 69 2.3 WSW 15 19 8 10 1031.2 1031.7 0.0
27/05:30pm 8.7 4.3 2.9 67 2.5 WSW 15 20 8 11 1031.0 1031.5 0.0
27/05:00pm 9.0 3.8 2.6 64 2.7 SW 19 28 10 15 1030.7 1031.2 0.0
27/04:30pm 9.5 4.7 2.8 63 2.9 SW 17 24 9 13 1030.7 1031.2 0.0
27/04:00pm 9.9 4.5 2.5 60 3.2 SW 20 30 11 16 1030.4 1030.8 0.0
27/03:30pm 9.8 3.6 1.9 58 3.4 WSW 24 35 13 19 1030.3 1030.7 0.0
27/03:00pm 10.2 4.5 2.6 59 3.3 SW 22 32 12 17 1029.9 1030.3 0.0
27/02:30pm 9.9 4.1 2.3 59 3.3 SW 22 30 12 16 1029.8 1030.2 0.0
27/02:00pm 9.0 3.4 1.4 59 3.1 SW 20 26 11 14 1029.8 1030.2 0.0
27/01:30pm 9.7 3.5 2.1 59 3.2 SW 24 32 13 17 1029.9 1030.3 0.0
27/01:00pm 9.7 3.7 3.4 65 2.7 SW 24 32 13 17 1030.2 1030.6 0.0
27/12:30pm 8.9 3.6 3.1 67 2.5 WSW 20 32 11 17 1030.3 1030.7 0.0
27/12:00pm 8.6 3.4 3.4 70 2.2 WSW 20 28 11 15 1030.6 1031.1 0.0
27/11:30am 7.4 2.1 3.1 74 1.8 WSW 20 26 11 14 1030.9 1031.4 0.0
27/11:00am 6.7 1.4 2.8 76 1.6 WSW 20 26 11 14 1031.3 1031.8 0.0
27/10:30am 6.3 1.2 2.9 79 1.4 WSW 19 24 10 13 1031.1 1031.6 0.0
27/10:00am 5.2 -0.2 2.7 84 1.0 WSW 20 24 11 13 1030.9 1031.4 0.0
27/09:30am 4.6 -1.1 2.6 87 0.8 SW 22 26 12 14 1030.6 1031.1 0.0
27/09:00am 4.0 -1.8 2.2 88 0.7 SW 22 32 12 17 1030.2 1030.6 0.2
27/08:30am 3.7 -1.5 2.2 90 0.6 WSW 19 28 10 15 1029.7 1030.1 0.2
27/08:00am 3.1 -2.2 2.1 93 0.4 WSW 19 28 10 15 1029.3 1029.7 0.2
27/07:30am 2.6 -2.9 1.9 95 0.3 WSW 20 24 11 13 1028.8 1029.3 0.2
27/07:00am 2.6 -2.9 1.7 94 0.4 WSW 20 26 11 14 1028.4 1028.9 0.2
27/06:30am 2.7 -2.6 1.8 94 0.4 WSW 19 22 10 12 1027.7 1028.2 0.2
27/06:00am 2.9 -2.6 1.7 92 0.5 WSW 20 26 11 14 1027.3 1027.8 0.2
27/05:30am 2.9 -2.1 1.6 91 0.5 WSW 17 20 9 11 1027.0 1027.4 0.2
27/05:00am 3.3 -1.6 1.7 89 0.6 WSW 17 26 9 14 1026.7 1027.1 0.2
27/04:30am 3.4 -1.6 1.6 88 0.7 WSW 17 20 9 11 1026.4 1026.8 0.2
27/04:00am 3.6 -1.4 1.5 86 0.8 WSW 17 20 9 11 1026.4 1026.8 0.2
27/03:30am 4.0 -1.6 1.5 84 1.0 WSW 20 26 11 14 1026.2 1026.6 0.2
27/03:00am 3.9 -0.7 1.6 85 0.9 WSW 15 20 8 11 1026.3 1026.7 0.2
27/02:30am 3.6 -1.4 1.6 87 0.8 W 17 20 9 11 1026.0 1026.4 0.2
27/02:00am 3.8 -0.8 1.7 86 0.8 WSW 15 19 8 10 1025.8 1026.2 0.2
27/01:30am 4.2 -0.3 1.9 85 0.9 WSW 15 19 8 10 1025.8 1026.2 0.2
27/01:00am 4.5 0.3 1.7 82 1.1 WSW 13 17 7 9 1025.8 1026.2 0.2
27/12:30am 4.8 0.3 2.0 82 1.1 WSW 15 19 8 10 1025.7 1026.1 0.2
27/12:00am 4.4 0.2 1.8 83 1.0 W 13 17 7 9 1025.7 1026.1 0.2
 
Date/Time
EST
Temp
°C
App
Temp
°C
Dew
Point
Rel
Hum
%
Delta-T
°C
Wind Press
QNH
hPa
Press
MSL
hPa
Rain
since 9 am
mm
Dir
 
Spd
km/h
Gust
km/h
Spd
kts
Gust
kts
26/11:30pm 4.4 0.2 1.8 83 1.0 W 13 17 7 9 1025.5 1025.9 0.2
26/11:00pm 4.8 0.7 2.0 82 1.1 W 13 19 7 10 1025.4 1025.8 0.2
26/10:30pm 4.9 0.8 2.1 82 1.1 WSW 13 17 7 9 1025.2 1025.6 0.2
26/10:00pm 5.2 1.4 1.9 79 1.3 W 11 13 6 7 1025.0 1025.5 0.2
26/09:30pm 5.4 1.3 2.2 80 1.3 W 13 17 7 9 1024.8 1025.3 0.2
26/09:00pm 5.9 1.8 2.5 79 1.4 W 13 17 7 9 1024.5 1025.0 0.2
26/08:30pm 6.3 1.9 2.6 77 1.5 W 15 20 8 11 1024.3 1024.8 0.2
26/08:00pm 6.0 2.3 2.3 77 1.5 W 11 15 6 8 1023.9 1024.3 0.2
26/07:30pm 6.7 2.6 2.2 73 1.9 W 13 17 7 9 1023.5 1023.9 0.2
26/07:00pm 7.5 2.7 2.4 70 2.1 W 17 20 9 11 1023.1 1023.5 0.2
26/06:30pm 8.1 2.0 2.6 68 2.3 WSW 24 33 13 18 1022.5 1022.9 0.2
26/06:00pm 8.5 3.3 2.3 65 2.6 WSW 19 24 10 13 1021.8 1022.2 0.2
26/05:30pm 9.1 2.9 2.4 63 2.9 WSW 24 33 13 18 1021.3 1021.7 0.2
26/05:00pm 9.7 4.2 3.9 67 2.6 WSW 22 32 12 17 1020.9 1021.4 0.2
26/04:30pm 9.9 4.8 4.1 67 2.6 WSW 20 28 11 15 1020.5 1020.9 0.2
26/04:00pm 9.8 5.6 5.8 76 1.9 WSW 17 20 9 11 1020.2 1020.6 0.2
26/03:30pm 9.9 5.1 5.7 75 2.0 W 20 30 11 16 1019.9 1020.3 0.2
26/03:00pm 9.3 3.8 6.0 80 1.5 W 24 35 13 19 1019.7 1020.1 0.2
26/02:30pm 8.6 4.2 7.2 91 0.7 WSW 20 28 11 15 1019.9 1020.3 0.2
26/02:00pm 9.8 4.7 5.8 76 1.9 W 22 39 12 21 1019.3 1019.7 0.0
26/01:30pm 10.2 3.5 5.4 72 2.2 WSW 30 48 16 26 1019.1 1019.5 0.0
26/01:28pm 10.5 3.7 5.3 70 2.4 WSW 30 48 16 26 1019.0 1019.4 0.0
26/01:00pm 11.5 5.2 4.0 60 3.4 W 26 35 14 19 1018.6 1019.0 0.0
26/12:30pm 12.5 6.5 5.4 62 3.3 W 26 33 14 18 1018.8 1019.2 0.0
26/12:00pm 11.8 7.3 5.9 67 2.8 WNW 19 30 10 16 1019.2 1019.6 0.0
26/11:30am 10.8 6.4 6.6 75 2.0 WNW 19 28 10 15 1019.5 1019.9 0.0
26/11:00am 10.2 6.7 7.1 81 1.5 WNW 15 20 8 11 1019.8 1020.2 0.0
26/10:30am 9.5 4.6 6.8 83 1.3 W 22 32 12 17 1020.3 1020.7 0.0
26/10:00am 10.2 5.8 6.5 78 1.7 WNW 19 26 10 14 1019.7 1020.1 0.0
26/09:30am 9.9 5.5 6.4 79 1.7 WNW 19 26 10 14 1019.6 1020.0 0.0
26/09:00am 8.9 4.8 6.0 82 1.3 NW 17 22 9 12 1019.2 1019.6 0.0
26/08:30am 7.6 4.3 6.4 92 0.6 NNW 13 17 7 9 1018.8 1019.2 0.0
26/08:00am 6.8 3.4 5.9 94 0.4 NNW 13 15 7 8 1018.6 1019.0 0.0
26/07:30am 6.6 3.2 5.9 95 0.3 NNW 13 17 7 9 1018.6 1019.0 0.0
26/07:00am 6.5 3.1 5.8 95 0.3 NNW 13 17 7 9 1018.3 1018.7 0.0
26/06:30am 6.3 2.8 5.4 94 0.4 NNW 13 15 7 8 1018.3 1018.7 0.0
26/06:00am 6.4 2.5 5.4 93 0.4 NNW 15 19 8 10 1018.2 1018.6 0.0
26/05:30am 6.5 2.7 5.8 95 0.3 NNW 15 19 8 10 1018.2 1018.6 0.0
26/05:00am 6.1 2.2 5.5 96 0.3 NNW 15 19 8 10 1018.0 1018.4 0.0
26/04:30am 6.0 2.2 5.6 97 0.2 NNW 15 19 8 10 1018.1 1018.5 0.0
26/04:00am 6.1 2.2 5.5 96 0.3 N 15 20 8 11 1018.0 1018.4 0.0
26/03:30am 6.3 2.5 5.9 97 0.2 NNW 15 19 8 10 1018.3 1018.7 0.0
26/03:00am 6.5 3.1 6.1 97 0.2 N 13 15 7 8 1018.7 1019.1 0.0
26/02:30am 6.6 3.3 6.3 98 0.1 NNW 13 15 7 8 1018.8 1019.2 0.0
26/02:00am 6.9 3.7 6.8 99 0.0 NNW 13 15 7 8 1019.1 1019.5 0.0
26/01:30am 6.6 4.1 6.6 100 0.0 N 9 11 5 6 1019.2 1019.6 0.0
26/01:00am 6.1 3.1 6.1 100 0.0 N 11 13 6 7 1019.3 1019.7 0.0
26/12:30am 6.0 3.4 6.0 100 0.0 NNE 9 9 5 5 1019.7 1020.1 0.0
26/12:00am 5.7 3.9 5.6 99 0.0 NNE 4 7 2 4 1019.9 1020.3 0.0
 
Date/Time
EST
Temp
°C
App
Temp
°C
Dew
Point
Rel
Hum
%
Delta-T
°C
Wind Press
QNH
hPa
Press
MSL
hPa
Rain
since 9 am
mm
Dir
 
Spd
km/h
Gust
km/h
Spd
kts
Gust
kts
25/11:30pm 5.9 3.6 5.8 99 0.0 NNE 7 7 4 4 1020.0 1020.4 0.0
25/11:00pm 6.6 4.1 6.5 99 0.0 N 9 9 5 5 1020.5 1020.9 0.0
25/10:30pm 5.7 3.6 5.6 99 0.0 NNW 6 7 3 4 1020.4 1020.8 0.0
25/10:00pm 5.7 4.7 5.6 99 0.0 CALM 0 0 0 0 1020.3 1020.7 0.0
25/09:30pm 5.9 4.8 5.2 95 0.3 CALM 0 0 0 0 1020.2 1020.6 0.0
25/09:00pm 6.7 4.9 5.5 92 0.5 NNW 4 7 2 4 1020.1 1020.5 0.0
25/08:30pm 7.6 4.9 5.4 86 1.0 NNW 9 9 5 5 1019.9 1020.3 0.0
25/08:00pm 8.3 5.9 5.4 82 1.3 NNW 7 9 4 5 1019.9 1020.3 0.0
25/07:30pm 8.4 5.6 5.2 80 1.5 NW 9 11 5 6 1019.8 1020.2 0.0
25/07:00pm 9.4 6.7 5.4 76 1.8 NW 9 11 5 6 1019.7 1020.1 0.0
25/06:30pm 9.9 7.1 5.3 73 2.1 WNW 9 11 5 6 1019.4 1019.8 0.0
25/06:00pm 10.5 7.3 5.3 70 2.4 WNW 11 13 6 7 1019.0 1019.4 0.0
25/05:30pm 11.2 8.0 5.1 66 2.8 WNW 11 19 6 10 1018.8 1019.2 0.0
25/05:00pm 12.4 9.0 5.8 64 3.1 WNW 13 20 7 11 1018.9 1019.3 0.0
25/04:30pm 13.0 8.7 5.2 59 3.7 NW 17 24 9 13 1018.8 1019.2 0.0
25/04:00pm 14.0 9.5 5.9 58 3.9 WNW 19 24 10 13 1018.7 1019.1 0.0

Other Formats:

Comma delimited format used in spreadsheet applications
http://www.bom.gov.au/fwo/IDN60801/IDN60801.95709.axf

JavaScript Object Notation format (JSON) in row-major order
http://www.bom.gov.au/fwo/IDN60801/IDN60801.95709.json